Traphill, NC

9:24 AM EST on March 06, 2015 (GMT -0500)
Traphill | Change Station
CLOSE
Current Station
Personal Weather Station
Location: Traphill, NC
Elevation: 1083 ft
Nearby Weather Stations

Elev 1083 ft 36.30 °N, 81.04 °W | Updated 49 seconds ago

Clear
Clear
26.6 °F
Feels Like 27 °F
N
0.0
Wind Variable Wind from ESE
Gusts 8.0 mph

Today
High -- | Low -- °F
--% Chance of Precip.
Yesterday
High -- | Low -- °F
Precip. -- in
6:48 AM 6:23 PM
Full, 99% visible
Pressure 30.52 in
Visibility 10.0 miles
Clouds Clear
Windchill 27 °F
Dew Point 11 °F
Humidity 51%
Rainfall in
Snow Depth Not available.
UV 3 out of 12
Pollen 3.80 out of 12
Air Quality Not available.
Flu Activity Not available.
METAR KUKF 061415Z AUTO 09003KT 10SM CLR M03/M12 A3052 RMK AO2

More Conditions Fewer Conditions

Pressure 30.52 in
Visibility 10.0 miles
Clouds Clear
Windchill 27 °F
Dew Point 11 °F
Humidity 51%
Rainfall in
Snow Depth Not available.
UV 3 out of 12
Pollen 3.80 out of 12
Air Quality Not available.
Flu Activity Not available.
METAR KUKF 061415Z AUTO 09003KT 10SM CLR M03/M12 A3052 RMK AO2

More Conditions Fewer Conditions

10-Day Weather Forecast

Almanac

Astronomy

Mar. 06, 2015 Rise Set
Actual Time
Civil Twilight
Nautical Twilight
Astronomical Twilight
Moon
Length of Visible Light
Length of Day
Tomorrow will be .
, % of the Moon is Illuminated

Today's Extremes

State Highs State Lows

Community

WunderPhotos

Upload Photos

1,803,282 photos uploaded!

WunderBlogs® & News

Nearby

Air Quality

  Air Quality AQ Index Pollutant
Not available.

Snow Depth

Station Depth Elevation

Earthquake Activity

City Distance Mag. Time & Date
Minimum magnitude displayed is 2.5.

Coastal Water Temperatures

Place Temperature

Nearby Weather Stations

Winter Weather Advisory
Statement as of 8:27 AM EST on March 06, 2015

... Winter Weather Advisory remains in effect until noon EST
today...

* locations... northwest North Carolina.

* Hazard types... black ice.

* Timing... this morning.

* Impacts... slippery conditions on roads and sidewalks.

* Temperatures... temperatures in the teens in the mountains to the 20s
in the Piedmont.

Precautionary/preparedness actions...

A Winter Weather Advisory means that areas of black ice will
cause travel difficulties. Be prepared for slippery roads and...
and use caution while driving.